PWSweather.com
Personal Weather Stations
Station Observations
KMAMEDFI2
Medfield, MA 02052

Medfield, MA 02052

Lat: 42.1900822, Lon: -71.3296889

Elevation: 138

Station Type: Rainwise WS MK-III

http://www.medfieldweather.com

High Low Average
Temperature 49.6°F9.8°C 25.9°F-3.4°C 36.2°F2.3°C
Dew Point 35.4°F1.9°C 24.4°F-4.2°C 30.5°F-0.8°C
Winds 4.6 mph 7.4 kmh Calm Calm 1.0 mph SW1.6 kmh SW
Wind Gusts 8.1 mph13.0 kmh -- 1.0 mph1.6 kmh
Humidity 95% 55% 81%
Pressure 30.15 in1021.0 mb 29.92 in1013.2 mb -
Precipitation 0.00 in0.0 mm - -
Hour Temp Dew Point Humidity Winds Wind Gusts Pressure Precip Precip Rate Daily Precip Total
12:00 AM 34.9°F1.6°C 30.0°F-1.1°C 82% Calm Calm 2.3 mph3.7 kmh 29.93 in1013.5 mb - 0.00 in0.0 mm 0.01 in0.3 mm
12:10 AM 35.0°F1.7°C 29.8°F-1.2°C 81% Calm Calm 2.3 mph3.7 kmh 29.93 in1013.5 mb - 0.00 in0.0 mm 0.01 in0.3 mm
12:20 AM 34.6°F1.4°C 30.0°F-1.1°C 83% Calm Calm 1.2 mph1.9 kmh 29.93 in1013.5 mb - 0.00 in0.0 mm 0.01 in0.3 mm
12:30 AM 34.5°F1.4°C 29.8°F-1.2°C 83% Calm Calm 1.2 mph1.9 kmh 29.93 in1013.5 mb - 0.00 in0.0 mm 0.01 in0.3 mm
12:40 AM 34.5°F1.4°C 30.2°F-1.0°C 84% 2.3 mph W3.7 kmh W 2.3 mph3.7 kmh 29.93 in1013.5 mb - 0.00 in0.0 mm 0.01 in0.3 mm
12:50 AM 35.2°F1.8°C 30.3°F-0.9°C 82% 1.2 mph WSW1.9 kmh WSW 2.3 mph3.7 kmh 29.93 in1013.5 mb - 0.00 in0.0 mm 0.01 in0.3 mm
01:00 AM 35.9°F2.2°C 30.3°F-0.9°C 80% 2.3 mph WSW3.7 kmh WSW 3.5 mph5.6 kmh 29.93 in1013.5 mb - 0.00 in0.0 mm 0.00 in0.0 mm
01:10 AM 36.6°F2.6°C 30.7°F-0.7°C 79% Calm Calm -- 29.93 in1013.5 mb - 0.00 in0.0 mm 0.00 in0.0 mm
01:20 AM 36.0°F2.2°C 30.7°F-0.7°C 81% Calm Calm -- 29.93 in1013.5 mb - 0.00 in0.0 mm 0.00 in0.0 mm
01:30 AM 35.4°F1.9°C 30.4°F-0.9°C 82% 1.2 mph NNW1.9 kmh NNW 2.3 mph3.7 kmh 29.93 in1013.5 mb - 0.00 in0.0 mm 0.00 in0.0 mm
01:40 AM 35.4°F1.9°C 30.7°F-0.7°C 83% 1.2 mph WSW1.9 kmh WSW 1.2 mph1.9 kmh 29.93 in1013.5 mb - 0.00 in0.0 mm 0.00 in0.0 mm
01:50 AM 35.8°F2.1°C 31.2°F-0.4°C 83% 2.3 mph SW3.7 kmh SW 3.5 mph5.6 kmh 29.93 in1013.5 mb - 0.00 in0.0 mm 0.00 in0.0 mm
02:00 AM 36.6°F2.6°C 31.0°F-0.6°C 80% 2.3 mph W3.7 kmh W 3.5 mph5.6 kmh 29.93 in1013.5 mb - 0.00 in0.0 mm 0.00 in0.0 mm
02:10 AM 37.6°F3.1°C 31.3°F-0.4°C 78% 2.3 mph WSW3.7 kmh WSW 2.3 mph3.7 kmh 29.92 in1013.2 mb - 0.00 in0.0 mm 0.00 in0.0 mm
02:20 AM 37.3°F2.9°C 31.1°F-0.5°C 78% 2.3 mph W3.7 kmh W 2.3 mph3.7 kmh 29.93 in1013.5 mb - 0.00 in0.0 mm 0.00 in0.0 mm
02:30 AM 37.4°F3.0°C 31.1°F-0.5°C 78% 2.3 mph SW3.7 kmh SW 2.3 mph3.7 kmh 29.93 in1013.5 mb - 0.00 in0.0 mm 0.00 in0.0 mm
02:40 AM 37.5°F3.1°C 31.2°F-0.4°C 78% 2.3 mph WSW3.7 kmh WSW 2.3 mph3.7 kmh 29.93 in1013.5 mb - 0.00 in0.0 mm 0.00 in0.0 mm
02:50 AM 37.2°F2.9°C 31.3°F-0.4°C 79% 2.3 mph WSW3.7 kmh WSW 2.3 mph3.7 kmh 29.94 in1013.9 mb - 0.00 in0.0 mm 0.00 in0.0 mm
03:00 AM 36.8°F2.7°C 31.2°F-0.4°C 80% 2.3 mph WSW3.7 kmh WSW 2.3 mph3.7 kmh 29.95 in1014.2 mb - 0.00 in0.0 mm 0.00 in0.0 mm
03:10 AM 36.5°F2.5°C 31.2°F-0.4°C 81% 2.3 mph WSW3.7 kmh WSW 2.3 mph3.7 kmh 29.95 in1014.2 mb - 0.00 in0.0 mm 0.00 in0.0 mm
03:20 AM 35.9°F2.2°C 31.0°F-0.6°C 82% 2.3 mph WSW3.7 kmh WSW 2.3 mph3.7 kmh 29.96 in1014.6 mb - 0.00 in0.0 mm 0.00 in0.0 mm
03:30 AM 35.0°F1.7°C 30.7°F-0.7°C 84% 2.3 mph WSW3.7 kmh WSW 2.3 mph3.7 kmh 29.96 in1014.6 mb - 0.00 in0.0 mm 0.00 in0.0 mm
03:40 AM 34.4°F1.3°C 30.4°F-0.9°C 85% Calm Calm 2.3 mph3.7 kmh 29.97 in1014.9 mb - 0.00 in0.0 mm 0.00 in0.0 mm
03:50 AM 33.7°F0.9°C 30.2°F-1.0°C 87% 1.2 mph WSW1.9 kmh WSW 1.2 mph1.9 kmh 29.97 in1014.9 mb - 0.00 in0.0 mm 0.00 in0.0 mm
04:00 AM 33.1°F0.6°C 30.0°F-1.1°C 88% Calm Calm -- 29.97 in1014.9 mb - 0.00 in0.0 mm 0.00 in0.0 mm
04:10 AM 32.8°F0.4°C 30.2°F-1.0°C 90% 1.2 mph SW1.9 kmh SW 2.3 mph3.7 kmh 29.97 in1014.9 mb - 0.00 in0.0 mm 0.00 in0.0 mm
04:20 AM 32.6°F0.3°C 30.2°F-1.0°C 91% 1.2 mph SW1.9 kmh SW 1.2 mph1.9 kmh 29.98 in1015.2 mb - 0.00 in0.0 mm 0.00 in0.0 mm
04:30 AM 32.1°F0.1°C 30.1°F-1.1°C 92% 2.3 mph WNW3.7 kmh WNW 2.3 mph3.7 kmh 29.98 in1015.2 mb - 0.00 in0.0 mm 0.00 in0.0 mm
04:40 AM 31.9°F-0.1°C 30.2°F-1.0°C 93% Calm Calm 2.3 mph3.7 kmh 29.98 in1015.2 mb - 0.00 in0.0 mm 0.00 in0.0 mm
04:50 AM 31.8°F-0.1°C 30.0°F-1.1°C 93% Calm Calm -- 29.98 in1015.2 mb - 0.00 in0.0 mm 0.00 in0.0 mm
05:00 AM 31.6°F-0.2°C 30.1°F-1.1°C 94% Calm Calm -- 29.98 in1015.2 mb - 0.00 in0.0 mm 0.00 in0.0 mm
05:10 AM 31.7°F-0.2°C 30.2°F-1.0°C 94% 1.2 mph WNW1.9 kmh WNW 2.3 mph3.7 kmh 29.98 in1015.2 mb - 0.00 in0.0 mm 0.00 in0.0 mm
05:20 AM 32.0°F0.0°C 30.5°F-0.8°C 94% Calm Calm -- 29.99 in1015.6 mb - 0.00 in0.0 mm 0.00 in0.0 mm
05:30 AM 32.3°F0.2°C 30.5°F-0.8°C 93% Calm Calm -- 29.99 in1015.6 mb - 0.00 in0.0 mm 0.00 in0.0 mm
05:40 AM 32.3°F0.2°C 30.8°F-0.7°C 94% Calm Calm -- 29.99 in1015.6 mb - 0.00 in0.0 mm 0.00 in0.0 mm
05:50 AM 32.1°F0.1°C 30.6°F-0.8°C 94% Calm Calm -- 29.99 in1015.6 mb - 0.00 in0.0 mm 0.00 in0.0 mm
06:00 AM 31.8°F-0.1°C 30.2°F-1.0°C 94% Calm Calm -- 29.99 in1015.6 mb - 0.00 in0.0 mm 0.00 in0.0 mm
06:10 AM 31.7°F-0.2°C 30.5°F-0.8°C 95% Calm Calm -- 30.00 in1015.9 mb - 0.00 in0.0 mm 0.00 in0.0 mm
06:20 AM 31.6°F-0.2°C 30.3°F-0.9°C 95% Calm Calm -- 30.01 in1016.3 mb - 0.00 in0.0 mm 0.00 in0.0 mm
06:30 AM 31.2°F-0.4°C 30.0°F-1.1°C 95% Calm Calm -- 30.02 in1016.6 mb - 0.00 in0.0 mm 0.00 in0.0 mm
06:40 AM 30.6°F-0.8°C 29.1°F-1.6°C 94% Calm Calm -- 30.02 in1016.6 mb - 0.00 in0.0 mm 0.00 in0.0 mm
06:50 AM 29.7°F-1.3°C 28.2°F-2.1°C 94% Calm Calm -- 30.02 in1016.6 mb - 0.00 in0.0 mm 0.00 in0.0 mm
07:00 AM 29.5°F-1.4°C 27.9°F-2.3°C 94% Calm Calm -- 30.03 in1016.9 mb - 0.00 in0.0 mm 0.00 in0.0 mm
07:10 AM 29.1°F-1.6°C 27.6°F-2.4°C 94% Calm Calm -- 30.03 in1016.9 mb - 0.00 in0.0 mm 0.00 in0.0 mm
07:20 AM 28.8°F-1.8°C 27.3°F-2.6°C 94% Calm Calm -- 30.03 in1016.9 mb - 0.00 in0.0 mm 0.00 in0.0 mm
07:30 AM 29.0°F-1.7°C 27.5°F-2.5°C 94% Calm Calm -- 30.03 in1016.9 mb - 0.00 in0.0 mm 0.00 in0.0 mm
07:40 AM 29.1°F-1.6°C 27.6°F-2.4°C 94% Calm Calm -- 30.03 in1016.9 mb - 0.00 in0.0 mm 0.00 in0.0 mm
07:50 AM 29.2°F-1.6°C 27.7°F-2.4°C 94% Calm Calm -- 30.03 in1016.9 mb - 0.00 in0.0 mm 0.00 in0.0 mm
08:00 AM 28.8°F-1.8°C 27.3°F-2.6°C 94% Calm Calm -- 30.04 in1017.3 mb - 0.00 in0.0 mm 0.00 in0.0 mm
08:10 AM 28.1°F-2.2°C 26.6°F-3.0°C 94% Calm Calm -- 30.04 in1017.3 mb - 0.00 in0.0 mm 0.00 in0.0 mm
08:20 AM 27.5°F-2.5°C 26.0°F-3.3°C 94% Calm Calm -- 30.04 in1017.3 mb - 0.00 in0.0 mm 0.00 in0.0 mm
08:30 AM 27.7°F-2.4°C 26.2°F-3.2°C 94% Calm Calm -- 30.04 in1017.3 mb - 0.00 in0.0 mm 0.00 in0.0 mm
08:40 AM 27.7°F-2.4°C 26.2°F-3.2°C 94% Calm Calm -- 30.04 in1017.3 mb - 0.00 in0.0 mm 0.00 in0.0 mm
08:50 AM 28.5°F-1.9°C 26.9°F-2.8°C 94% Calm Calm -- 30.05 in1017.6 mb - 0.00 in0.0 mm 0.00 in0.0 mm
09:00 AM 28.9°F-1.7°C 27.4°F-2.6°C 94% Calm Calm -- 30.05 in1017.6 mb - 0.00 in0.0 mm 0.00 in0.0 mm
09:10 AM 29.2°F-1.6°C 27.6°F-2.4°C 94% Calm Calm -- 30.06 in1017.9 mb - 0.00 in0.0 mm 0.00 in0.0 mm
09:20 AM 29.9°F-1.2°C 28.4°F-2.0°C 94% Calm Calm -- 30.07 in1018.3 mb - 0.00 in0.0 mm 0.00 in0.0 mm
09:30 AM 30.7°F-0.7°C 29.2°F-1.6°C 94% Calm Calm -- 30.07 in1018.3 mb - 0.00 in0.0 mm 0.00 in0.0 mm
09:40 AM 31.1°F-0.5°C 29.9°F-1.2°C 95% Calm Calm -- 30.08 in1018.6 mb - 0.00 in0.0 mm 0.00 in0.0 mm
09:50 AM 31.9°F-0.1°C 30.7°F-0.7°C 95% Calm Calm -- 30.08 in1018.6 mb - 0.00 in0.0 mm 0.00 in0.0 mm
10:00 AM 33.3°F0.7°C 32.1°F0.1°C 95% Calm Calm -- 30.10 in1019.3 mb - 0.00 in0.0 mm 0.00 in0.0 mm
10:10 AM 34.8°F1.6°C 32.7°F0.4°C 92% Calm Calm -- 30.10 in1019.3 mb - 0.00 in0.0 mm 0.00 in0.0 mm
10:20 AM 36.7°F2.6°C 32.6°F0.3°C 85% 2.3 mph W3.7 kmh W 2.3 mph3.7 kmh 30.11 in1019.6 mb - 0.00 in0.0 mm 0.00 in0.0 mm
10:30 AM 38.6°F3.7°C 33.3°F0.7°C 81% 2.3 mph SW3.7 kmh SW 3.5 mph5.6 kmh 30.12 in1020.0 mb - 0.00 in0.0 mm 0.00 in0.0 mm
10:40 AM 39.7°F4.3°C 33.4°F0.8°C 78% 2.3 mph W3.7 kmh W 2.3 mph3.7 kmh 30.13 in1020.3 mb - 0.00 in0.0 mm 0.00 in0.0 mm
10:50 AM 40.7°F4.8°C 33.7°F0.9°C 76% 2.3 mph W3.7 kmh W 3.5 mph5.6 kmh 30.13 in1020.3 mb - 0.00 in0.0 mm 0.00 in0.0 mm
11:00 AM 41.4°F5.2°C 33.4°F0.8°C 73% 3.5 mph WNW5.6 kmh WNW 3.5 mph5.6 kmh 30.13 in1020.3 mb - 0.00 in0.0 mm 0.00 in0.0 mm
11:10 AM 42.2°F5.7°C 33.8°F1.0°C 72% 3.5 mph SW5.6 kmh SW 2.3 mph3.7 kmh 30.14 in1020.7 mb - 0.00 in0.0 mm 0.00 in0.0 mm
11:20 AM 43.2°F6.2°C 34.1°F1.2°C 70% 1.2 mph NW1.9 kmh NW 2.3 mph3.7 kmh 30.14 in1020.7 mb - 0.00 in0.0 mm 0.00 in0.0 mm
11:30 AM 43.9°F6.6°C 34.4°F1.3°C 69% 2.3 mph WNW3.7 kmh WNW 5.8 mph9.3 kmh 30.14 in1020.7 mb - 0.00 in0.0 mm 0.00 in0.0 mm
11:40 AM 45.2°F7.3°C 34.9°F1.6°C 67% 3.5 mph W5.6 kmh W 5.8 mph9.3 kmh 30.14 in1020.7 mb - 0.00 in0.0 mm 0.00 in0.0 mm
11:50 AM 46.1°F7.8°C 35.4°F1.9°C 66% 1.2 mph SSW1.9 kmh SSW 2.3 mph3.7 kmh 30.14 in1020.7 mb - 0.00 in0.0 mm 0.00 in0.0 mm
12:00 PM 46.7°F8.2°C 34.8°F1.6°C 63% 2.3 mph SE3.7 kmh SE 2.3 mph3.7 kmh 30.15 in1021.0 mb - 0.00 in0.0 mm 0.00 in0.0 mm
12:10 PM 47.2°F8.4°C 34.8°F1.6°C 62% 1.2 mph SW1.9 kmh SW 2.3 mph3.7 kmh 30.14 in1020.7 mb - 0.00 in0.0 mm 0.00 in0.0 mm
12:20 PM 48.1°F8.9°C 34.4°F1.3°C 59% 3.5 mph WSW5.6 kmh WSW 3.5 mph5.6 kmh 30.14 in1020.7 mb - 0.00 in0.0 mm 0.00 in0.0 mm
12:30 PM 48.3°F9.1°C 34.6°F1.4°C 59% 1.2 mph SSW1.9 kmh SSW 2.3 mph3.7 kmh 30.15 in1021.0 mb - 0.00 in0.0 mm 0.00 in0.0 mm
12:40 PM 48.1°F8.9°C 34.9°F1.6°C 60% 3.5 mph W5.6 kmh W 2.3 mph3.7 kmh 30.14 in1020.7 mb - 0.00 in0.0 mm 0.00 in0.0 mm
12:50 PM 48.5°F9.2°C 34.8°F1.6°C 59% 2.3 mph SE3.7 kmh SE 2.3 mph3.7 kmh 30.14 in1020.7 mb - 0.00 in0.0 mm 0.00 in0.0 mm
01:00 PM 48.8°F9.3°C 34.6°F1.4°C 58% 4.6 mph WSW7.4 kmh WSW 8.1 mph13.0 kmh 30.13 in1020.3 mb - 0.00 in0.0 mm 0.00 in0.0 mm
01:10 PM 47.9°F8.8°C 34.3°F1.3°C 59% 2.3 mph WSW3.7 kmh WSW 5.8 mph9.3 kmh 30.14 in1020.7 mb - 0.00 in0.0 mm 0.00 in0.0 mm
01:20 PM 48.1°F8.9°C 34.0°F1.1°C 58% 4.6 mph WSW7.4 kmh WSW 5.8 mph9.3 kmh 30.13 in1020.3 mb - 0.00 in0.0 mm 0.00 in0.0 mm
01:30 PM 48.9°F9.4°C 34.3°F1.3°C 57% 2.3 mph WSW3.7 kmh WSW 5.8 mph9.3 kmh 30.12 in1020.0 mb - 0.00 in0.0 mm 0.00 in0.0 mm
01:40 PM 48.8°F9.3°C 34.2°F1.2°C 57% 1.2 mph SSW1.9 kmh SSW 2.3 mph3.7 kmh 30.12 in1020.0 mb - 0.00 in0.0 mm 0.00 in0.0 mm
01:50 PM 48.9°F9.4°C 34.3°F1.3°C 57% 2.3 mph W3.7 kmh W 2.3 mph3.7 kmh 30.12 in1020.0 mb - 0.00 in0.0 mm 0.00 in0.0 mm
02:00 PM 49.3°F9.6°C 34.2°F1.2°C 56% Calm Calm 1.2 mph1.9 kmh 30.12 in1020.0 mb - 0.00 in0.0 mm 0.00 in0.0 mm
02:10 PM 48.9°F9.4°C 33.9°F1.1°C 56% 3.5 mph SW5.6 kmh SW 6.9 mph11.1 kmh 30.12 in1020.0 mb - 0.00 in0.0 mm 0.00 in0.0 mm
02:20 PM 48.9°F9.4°C 34.3°F1.3°C 57% 2.3 mph W3.7 kmh W 2.3 mph3.7 kmh 30.12 in1020.0 mb - 0.00 in0.0 mm 0.00 in0.0 mm
02:30 PM 49.2°F9.6°C 34.2°F1.2°C 56% 3.5 mph WSW5.6 kmh WSW 3.5 mph5.6 kmh 30.12 in1020.0 mb - 0.00 in0.0 mm 0.00 in0.0 mm
02:40 PM 49.2°F9.6°C 34.2°F1.2°C 56% 4.6 mph W7.4 kmh W 3.5 mph5.6 kmh 30.12 in1020.0 mb - 0.00 in0.0 mm 0.00 in0.0 mm
02:50 PM 49.2°F9.6°C 34.2°F1.2°C 56% 2.3 mph SW3.7 kmh SW 6.9 mph11.1 kmh 30.12 in1020.0 mb - 0.00 in0.0 mm 0.00 in0.0 mm
03:00 PM 49.5°F9.7°C 34.4°F1.3°C 56% 2.3 mph S3.7 kmh S 2.3 mph3.7 kmh 30.12 in1020.0 mb - 0.00 in0.0 mm 0.00 in0.0 mm
03:10 PM 49.6°F9.8°C 34.1°F1.2°C 55% 2.3 mph W3.7 kmh W 2.3 mph3.7 kmh 30.12 in1020.0 mb - 0.00 in0.0 mm 0.00 in0.0 mm
03:20 PM 49.2°F9.6°C 34.2°F1.2°C 56% 2.3 mph WSW3.7 kmh WSW 2.3 mph3.7 kmh 30.12 in1020.0 mb - 0.00 in0.0 mm 0.00 in0.0 mm
03:30 PM 49.1°F9.5°C 34.1°F1.2°C 56% 3.5 mph SW5.6 kmh SW 3.5 mph5.6 kmh 30.12 in1020.0 mb - 0.00 in0.0 mm 0.00 in0.0 mm
03:40 PM 48.5°F9.2°C 33.5°F0.8°C 56% 3.5 mph WNW5.6 kmh WNW 2.3 mph3.7 kmh 30.12 in1020.0 mb - 0.00 in0.0 mm 0.00 in0.0 mm
03:50 PM 48.1°F8.9°C 33.6°F0.9°C 57% 1.2 mph SW1.9 kmh SW 2.3 mph3.7 kmh 30.12 in1020.0 mb - 0.00 in0.0 mm 0.00 in0.0 mm
04:00 PM 47.8°F8.8°C 33.3°F0.7°C 57% 2.3 mph WNW3.7 kmh WNW 2.3 mph3.7 kmh 30.13 in1020.3 mb - 0.00 in0.0 mm 0.00 in0.0 mm
04:10 PM 47.6°F8.7°C 33.5°F0.8°C 58% 1.2 mph W1.9 kmh W 2.3 mph3.7 kmh 30.13 in1020.3 mb - 0.00 in0.0 mm 0.00 in0.0 mm
04:20 PM 47.6°F8.7°C 34.0°F1.1°C 59% 2.3 mph WSW3.7 kmh WSW 3.5 mph5.6 kmh 30.12 in1020.0 mb - 0.00 in0.0 mm 0.00 in0.0 mm
04:30 PM 47.3°F8.5°C 33.3°F0.7°C 58% Calm Calm 2.3 mph3.7 kmh 30.12 in1020.0 mb - 0.00 in0.0 mm 0.00 in0.0 mm
04:40 PM 46.9°F8.3°C 32.9°F0.5°C 58% 2.3 mph W3.7 kmh W 2.3 mph3.7 kmh 30.13 in1020.3 mb - 0.00 in0.0 mm 0.00 in0.0 mm
04:50 PM 46.8°F8.2°C 33.7°F0.9°C 60% 1.2 mph WSW1.9 kmh WSW -- 30.13 in1020.3 mb - 0.00 in0.0 mm 0.00 in0.0 mm
05:00 PM 45.8°F7.7°C 33.5°F0.8°C 62% Calm Calm 1.2 mph1.9 kmh 30.13 in1020.3 mb - 0.00 in0.0 mm 0.00 in0.0 mm
05:10 PM 44.7°F7.1°C 32.9°F0.5°C 63% Calm Calm -- 30.13 in1020.3 mb - 0.00 in0.0 mm 0.00 in0.0 mm
05:20 PM 43.7°F6.5°C 33.1°F0.6°C 66% Calm Calm -- 30.13 in1020.3 mb - 0.00 in0.0 mm 0.00 in0.0 mm
05:30 PM 42.6°F5.9°C 32.8°F0.4°C 68% Calm Calm -- 30.14 in1020.7 mb - 0.00 in0.0 mm 0.00 in0.0 mm
05:40 PM 41.6°F5.3°C 32.6°F0.3°C 70% Calm Calm -- 30.14 in1020.7 mb - 0.00 in0.0 mm 0.00 in0.0 mm
05:50 PM 40.9°F4.9°C 32.6°F0.3°C 72% Calm Calm -- 30.13 in1020.3 mb - 0.00 in0.0 mm 0.00 in0.0 mm
06:00 PM 39.8°F4.3°C 32.2°F0.1°C 74% Calm Calm -- 30.13 in1020.3 mb - 0.00 in0.0 mm 0.00 in0.0 mm
06:10 PM 38.5°F3.6°C 32.3°F0.2°C 78% Calm Calm -- 30.13 in1020.3 mb - 0.00 in0.0 mm 0.00 in0.0 mm
06:20 PM 37.4°F3.0°C 31.5°F-0.3°C 79% Calm Calm -- 30.13 in1020.3 mb - 0.00 in0.0 mm 0.00 in0.0 mm
06:30 PM 36.5°F2.5°C 31.6°F-0.2°C 82% Calm Calm -- 30.13 in1020.3 mb - 0.00 in0.0 mm 0.00 in0.0 mm
06:40 PM 35.9°F2.2°C 31.0°F-0.6°C 82% Calm Calm -- 30.13 in1020.3 mb - 0.00 in0.0 mm 0.00 in0.0 mm
06:50 PM 34.7°F1.5°C 30.4°F-0.9°C 84% Calm Calm -- 30.13 in1020.3 mb - 0.00 in0.0 mm 0.00 in0.0 mm
07:00 PM 34.6°F1.4°C 31.1°F-0.5°C 87% Calm Calm -- 30.14 in1020.7 mb - 0.00 in0.0 mm 0.00 in0.0 mm
07:10 PM 33.8°F1.0°C 30.1°F-1.1°C 86% Calm Calm -- 30.14 in1020.7 mb - 0.00 in0.0 mm 0.00 in0.0 mm
07:20 PM 32.7°F0.4°C 30.1°F-1.1°C 90% Calm Calm -- 30.14 in1020.7 mb - 0.00 in0.0 mm 0.00 in0.0 mm
07:30 PM 32.6°F0.3°C 30.3°F-0.9°C 91% Calm Calm -- 30.14 in1020.7 mb - 0.00 in0.0 mm 0.00 in0.0 mm
07:40 PM 32.5°F0.3°C 30.7°F-0.7°C 93% Calm Calm -- 30.14 in1020.7 mb - 0.00 in0.0 mm 0.00 in0.0 mm
07:50 PM 32.0°F0.0°C 29.9°F-1.2°C 92% Calm Calm -- 30.14 in1020.7 mb - 0.00 in0.0 mm 0.00 in0.0 mm
08:00 PM 31.4°F-0.3°C 30.1°F-1.1°C 95% Calm Calm -- 30.14 in1020.7 mb - 0.00 in0.0 mm 0.00 in0.0 mm
08:10 PM 30.9°F-0.6°C 29.4°F-1.4°C 94% Calm Calm -- 30.14 in1020.7 mb - 0.00 in0.0 mm 0.00 in0.0 mm
08:20 PM 30.2°F-1.0°C 28.7°F-1.8°C 94% Calm Calm -- 30.14 in1020.7 mb - 0.00 in0.0 mm 0.00 in0.0 mm
08:30 PM 30.2°F-1.0°C 28.7°F-1.8°C 94% Calm Calm -- 30.14 in1020.7 mb - 0.00 in0.0 mm 0.00 in0.0 mm
08:40 PM 29.6°F-1.3°C 28.1°F-2.2°C 94% Calm Calm -- 30.14 in1020.7 mb - 0.00 in0.0 mm 0.00 in0.0 mm
08:50 PM 29.2°F-1.6°C 27.6°F-2.4°C 94% Calm Calm -- 30.14 in1020.7 mb - 0.00 in0.0 mm 0.00 in0.0 mm
09:00 PM 29.1°F-1.6°C 27.6°F-2.4°C 94% Calm Calm -- 30.14 in1020.7 mb - 0.00 in0.0 mm 0.00 in0.0 mm
09:10 PM 29.5°F-1.4°C 28.0°F-2.2°C 94% Calm Calm -- 30.14 in1020.7 mb - 0.00 in0.0 mm 0.00 in0.0 mm
09:20 PM 29.0°F-1.7°C 27.5°F-2.5°C 94% Calm Calm -- 30.14 in1020.7 mb - 0.00 in0.0 mm 0.00 in0.0 mm
09:30 PM 28.6°F-1.9°C 27.1°F-2.7°C 94% Calm Calm -- 30.14 in1020.7 mb - 0.00 in0.0 mm 0.00 in0.0 mm
09:40 PM 28.2°F-2.1°C 26.7°F-2.9°C 94% Calm Calm -- 30.13 in1020.3 mb - 0.00 in0.0 mm 0.00 in0.0 mm
09:50 PM 27.9°F-2.3°C 26.4°F-3.1°C 94% Calm Calm -- 30.13 in1020.3 mb - 0.00 in0.0 mm 0.00 in0.0 mm
10:00 PM 27.9°F-2.3°C 26.4°F-3.1°C 94% Calm Calm -- 30.14 in1020.7 mb - 0.00 in0.0 mm 0.00 in0.0 mm
10:10 PM 27.6°F-2.4°C 26.1°F-3.3°C 94% Calm Calm -- 30.14 in1020.7 mb - 0.00 in0.0 mm 0.00 in0.0 mm
10:20 PM 27.5°F-2.5°C 26.0°F-3.3°C 94% Calm Calm -- 30.13 in1020.3 mb - 0.00 in0.0 mm 0.00 in0.0 mm
10:30 PM 26.9°F-2.8°C 25.4°F-3.7°C 94% Calm Calm -- 30.14 in1020.7 mb - 0.00 in0.0 mm 0.00 in0.0 mm
10:50 PM 26.5°F-3.1°C 25.1°F-3.8°C 94% Calm Calm -- 30.14 in1020.7 mb - 0.00 in0.0 mm 0.00 in0.0 mm
11:00 PM 26.8°F-2.9°C 25.4°F-3.7°C 94% Calm Calm -- 30.14 in1020.7 mb - 0.00 in0.0 mm 0.00 in0.0 mm
11:10 PM 26.8°F-2.9°C 25.3°F-3.7°C 94% Calm Calm -- 30.14 in1020.7 mb - 0.00 in0.0 mm 0.00 in0.0 mm
11:20 PM 26.8°F-2.9°C 25.3°F-3.7°C 94% Calm Calm -- 30.14 in1020.7 mb - 0.00 in0.0 mm 0.00 in0.0 mm
11:30 PM 26.5°F-3.1°C 25.0°F-3.9°C 94% Calm Calm -- 30.14 in1020.7 mb - 0.00 in0.0 mm 0.00 in0.0 mm
11:40 PM 26.3°F-3.2°C 24.8°F-4.0°C 94% Calm Calm -- 30.15 in1021.0 mb - 0.00 in0.0 mm 0.00 in0.0 mm
11:50 PM 26.4°F-3.1°C 24.9°F-3.9°C 94% Calm Calm -- 30.13 in1020.3 mb - 0.00 in0.0 mm 0.00 in0.0 mm